createdAt,value
2023-09-05T00:02:16.643Z,9.18
2023-09-05T00:04:46.220Z,8.52
2023-09-05T00:07:14.635Z,8.55
2023-09-05T00:09:42.767Z,9.68
2023-09-05T00:12:11.457Z,9.00
2023-09-05T00:14:41.081Z,9.40
2023-09-05T00:17:09.188Z,9.68
2023-09-05T00:19:40.217Z,9.68
2023-09-05T00:22:08.401Z,9.43
2023-09-05T00:24:39.677Z,9.88
2023-09-05T00:27:11.238Z,9.73
2023-09-05T00:32:10.978Z,9.40
2023-09-05T00:34:42.737Z,10.32
2023-09-05T00:37:11.472Z,10.40
2023-09-05T00:39:42.089Z,9.32
2023-09-05T00:42:12.236Z,9.80
2023-09-05T00:44:41.773Z,9.43
2023-09-05T00:47:12.518Z,10.65
2023-09-05T00:49:43.970Z,10.52
2023-09-05T00:54:43.443Z,9.35
2023-09-05T00:57:16.037Z,10.05
2023-09-05T00:59:46.472Z,8.98
2023-09-05T01:02:14.636Z,9.55
2023-09-05T01:04:44.634Z,8.73
2023-09-05T01:07:19.701Z,9.02
2023-09-05T01:09:55.617Z,8.45
2023-09-05T01:12:24.711Z,8.88
2023-09-05T01:14:54.674Z,8.43
2023-09-05T01:17:22.780Z,9.13
2023-09-05T01:19:56.238Z,8.75
2023-09-05T01:22:30.657Z,9.48
2023-09-05T01:25:03.829Z,8.20
2023-09-05T01:27:32.573Z,8.57
2023-09-05T01:30:01.331Z,8.07
2023-09-05T01:32:29.598Z,8.55
2023-09-05T01:34:57.775Z,8.35
2023-09-05T01:37:26.006Z,7.35
2023-09-05T01:39:54.225Z,7.85
2023-09-05T01:42:23.886Z,8.68
2023-09-05T01:44:52.005Z,7.28
2023-09-05T01:47:20.115Z,7.82
2023-09-05T01:49:48.232Z,6.60
2023-09-05T01:52:16.300Z,7.32
2023-09-05T01:54:44.353Z,6.72
2023-09-05T01:57:12.484Z,6.93
2023-09-05T01:59:41.958Z,6.72
2023-09-05T02:02:10.147Z,7.28
2023-09-05T02:04:38.298Z,6.78
2023-09-05T02:07:10.221Z,7.10
2023-09-05T02:09:38.416Z,6.57
2023-09-05T02:12:06.943Z,6.75
2023-09-05T02:14:36.537Z,6.57
2023-09-05T02:17:06.199Z,7.65
2023-09-05T02:19:34.289Z,7.00
2023-09-05T02:22:03.672Z,6.28
2023-09-05T02:24:31.801Z,5.85
2023-09-05T02:26:59.880Z,5.38
2023-09-05T02:29:29.530Z,5.72
2023-09-05T02:31:57.699Z,6.47
2023-09-05T02:34:27.179Z,7.18
2023-09-05T02:36:57.026Z,6.07
2023-09-05T02:39:25.184Z,6.65
2023-09-05T02:41:53.369Z,6.00
2023-09-05T02:44:20.421Z,5.82
2023-09-05T02:46:49.482Z,5.45
2023-09-05T02:49:17.622Z,5.70
2023-09-05T02:51:47.176Z,5.82
2023-09-05T02:54:15.321Z,4.90
2023-09-05T02:56:43.489Z,5.60
2023-09-05T02:59:11.650Z,4.60
2023-09-05T03:01:40.128Z,5.07
2023-09-05T03:04:08.392Z,4.65
2023-09-05T03:06:36.529Z,4.47
2023-09-05T03:09:06.128Z,4.75
2023-09-05T03:11:35.059Z,4.47
2023-09-05T03:14:03.717Z,4.47
2023-09-05T03:16:31.934Z,4.90
2023-09-05T03:19:01.130Z,4.82
2023-09-05T03:21:29.279Z,5.30
2023-09-05T03:23:57.944Z,5.15
2023-09-05T03:26:27.418Z,5.20
2023-09-05T03:28:55.566Z,4.72
2023-09-05T03:31:23.860Z,4.60
2023-09-05T03:33:54.531Z,4.35
2023-09-05T03:36:22.757Z,5.50
2023-09-05T03:38:51.117Z,4.53
2023-09-05T03:41:19.244Z,4.03
2023-09-05T03:43:48.772Z,3.63
2023-09-05T03:46:16.921Z,3.67
2023-09-05T03:48:46.603Z,3.65
2023-09-05T03:51:14.798Z,5.18
2023-09-05T03:53:42.989Z,4.20
2023-09-05T03:56:11.156Z,5.20
2023-09-05T03:58:40.140Z,4.65
2023-09-05T04:01:16.183Z,4.53
2023-09-05T04:03:44.467Z,4.82
2023-09-05T04:06:12.600Z,4.60
2023-09-05T04:08:40.768Z,4.93
2023-09-05T04:11:09.104Z,5.45
2023-09-05T04:13:37.225Z,5.28
2023-09-05T04:16:07.097Z,6.10
2023-09-05T04:18:36.629Z,5.47
2023-09-05T04:21:05.224Z,5.40
2023-09-05T04:23:33.488Z,4.85
2023-09-05T04:26:03.171Z,6.47
2023-09-05T04:28:32.655Z,5.15
2023-09-05T04:31:04.509Z,5.18
2023-09-05T04:33:38.960Z,5.90
2023-09-05T04:36:10.596Z,5.95
2023-09-05T04:38:38.868Z,5.40
2023-09-05T04:41:09.281Z,5.22
2023-09-05T04:43:37.740Z,5.53
2023-09-05T04:46:07.366Z,5.57
2023-09-05T04:48:36.388Z,6.10
2023-09-05T04:51:05.412Z,6.97
2023-09-05T04:53:35.494Z,6.30
2023-09-05T04:56:04.871Z,6.40
2023-09-05T04:58:34.169Z,6.07
2023-09-05T05:01:04.669Z,5.63
2023-09-05T05:03:33.521Z,6.20
2023-09-05T05:06:01.847Z,5.32
2023-09-05T05:08:30.025Z,5.78
2023-09-05T05:10:59.756Z,6.95
2023-09-05T05:13:27.884Z,6.10
2023-09-05T05:15:55.939Z,5.93
2023-09-05T05:18:24.007Z,6.40
2023-09-05T05:20:52.126Z,6.68
2023-09-05T05:23:20.751Z,9.27
2023-09-05T05:25:48.966Z,8.32
2023-09-05T05:28:18.559Z,6.50
2023-09-05T05:30:46.798Z,7.13
2023-09-05T05:33:14.969Z,6.78
2023-09-05T05:35:43.099Z,5.63
2023-09-05T05:38:11.193Z,7.32
2023-09-05T05:40:39.316Z,7.28
2023-09-05T05:43:12.010Z,6.50
2023-09-05T05:45:41.468Z,7.38
2023-09-05T05:48:12.354Z,6.78
2023-09-05T05:50:40.471Z,6.80
2023-09-05T05:53:08.567Z,7.13
2023-09-05T05:55:36.833Z,8.13
2023-09-05T05:58:05.166Z,10.90
2023-09-05T06:00:33.272Z,9.20
2023-09-05T06:03:03.217Z,7.35
2023-09-05T06:05:31.383Z,7.68
2023-09-05T06:08:01.053Z,7.95
2023-09-05T06:10:29.213Z,6.78
2023-09-05T06:12:57.350Z,7.70
2023-09-05T06:15:25.570Z,8.93
2023-09-05T06:17:54.002Z,9.23
2023-09-05T06:20:24.303Z,8.48
2023-09-05T06:22:52.499Z,8.40
2023-09-05T06:25:24.773Z,8.10
2023-09-05T06:27:53.073Z,7.15
2023-09-05T06:30:21.511Z,7.35
2023-09-05T06:32:49.722Z,7.90
2023-09-05T06:35:18.293Z,8.65
2023-09-05T06:37:47.734Z,8.95
2023-09-05T06:40:16.710Z,9.63
2023-09-05T06:42:44.976Z,10.45
2023-09-05T06:45:14.074Z,9.30
2023-09-05T06:47:42.188Z,9.27
2023-09-05T06:50:11.857Z,9.45
2023-09-05T06:52:40.472Z,9.75
2023-09-05T06:55:11.199Z,9.65
2023-09-05T06:57:40.339Z,9.38
2023-09-05T07:00:09.888Z,9.27
2023-09-05T07:02:38.065Z,9.90
2023-09-05T07:05:06.915Z,12.57
2023-09-05T07:07:35.140Z,10.52
2023-09-05T07:10:03.279Z,10.20
2023-09-05T07:12:32.746Z,9.82
2023-09-05T07:15:01.921Z,10.77
2023-09-05T07:17:30.072Z,9.75
2023-09-05T07:19:58.183Z,11.32
2023-09-05T07:22:26.275Z,11.55
2023-09-05T07:24:54.420Z,9.77
2023-09-05T07:27:22.964Z,10.95
2023-09-05T07:29:52.566Z,10.65
2023-09-05T07:32:20.720Z,10.18
2023-09-05T07:34:50.265Z,9.13
2023-09-05T07:37:18.489Z,10.40
2023-09-05T07:39:48.444Z,9.82
2023-09-05T07:42:16.514Z,10.23
2023-09-05T07:44:44.562Z,9.25
2023-09-05T07:47:14.103Z,11.20
2023-09-05T07:49:43.598Z,11.38
2023-09-05T07:52:11.794Z,11.10
2023-09-05T07:54:40.713Z,10.50
2023-09-05T07:57:08.825Z,9.80
2023-09-05T07:59:36.917Z,10.20
2023-09-05T08:02:06.345Z,9.80
2023-09-05T08:04:35.868Z,11.02
2023-09-05T08:07:03.986Z,11.30
2023-09-05T08:09:32.109Z,10.45
2023-09-05T08:12:00.268Z,11.57
2023-09-05T08:14:28.503Z,10.43
2023-09-05T08:16:57.548Z,10.13
2023-09-05T08:19:25.952Z,10.02
2023-09-05T08:21:55.425Z,10.57
2023-09-05T08:24:23.515Z,11.18
2023-09-05T08:26:51.702Z,11.32
2023-09-05T08:29:27.815Z,12.50
2023-09-05T08:31:56.253Z,12.30
2023-09-05T08:34:27.561Z,13.52
2023-09-05T08:36:58.647Z,13.32
2023-09-05T08:39:26.718Z,12.35
2023-09-05T08:41:55.398Z,12.27
2023-09-05T08:44:23.474Z,11.02
2023-09-05T08:46:53.076Z,12.35
2023-09-05T08:49:21.292Z,13.68
2023-09-05T08:51:55.880Z,14.63
2023-09-05T08:54:27.437Z,13.82
2023-09-05T08:56:55.544Z,12.95
2023-09-05T08:59:23.961Z,14.68
2023-09-05T09:01:54.101Z,13.75
2023-09-05T09:04:24.373Z,18.20
2023-09-05T09:06:57.569Z,13.48
2023-09-05T09:09:37.454Z,12.65
2023-09-05T09:12:06.389Z,11.88
2023-09-05T09:14:34.877Z,11.23
2023-09-05T09:17:03.849Z,12.68
2023-09-05T09:19:31.980Z,11.57
2023-09-05T09:22:03.065Z,12.18
2023-09-05T09:24:36.724Z,12.77
2023-09-05T09:27:06.570Z,11.73
2023-09-05T09:29:35.817Z,11.18
2023-09-05T09:32:06.330Z,11.27
2023-09-05T09:34:36.959Z,10.70
2023-09-05T09:37:05.582Z,11.93
2023-09-05T09:39:34.212Z,13.75
2023-09-05T09:42:03.905Z,11.13
2023-09-05T09:44:40.729Z,11.68
2023-09-05T09:47:09.922Z,12.43
2023-09-05T09:49:45.431Z,12.73
2023-09-05T09:52:21.355Z,13.15
2023-09-05T09:54:55.391Z,11.60
2023-09-05T09:57:43.284Z,12.35
2023-09-05T10:00:20.284Z,11.23
2023-09-05T10:02:49.129Z,10.05
2023-09-05T10:05:20.513Z,8.77
2023-09-05T10:07:50.523Z,11.13
2023-09-05T10:10:19.425Z,8.95
2023-09-05T10:12:49.285Z,8.85
2023-09-05T10:15:19.608Z,9.18
2023-09-05T10:17:49.006Z,8.43
2023-09-05T10:20:23.429Z,7.18
2023-09-05T10:22:54.632Z,6.95
2023-09-05T10:25:23.534Z,6.63
2023-09-05T10:27:53.394Z,6.78
2023-09-05T10:30:21.698Z,6.57
2023-09-05T10:32:50.693Z,6.40
2023-09-05T10:35:20.756Z,6.53
2023-09-05T10:37:53.936Z,6.63
2023-09-05T10:40:35.098Z,6.18
2023-09-05T10:43:08.748Z,5.68
2023-09-05T10:45:37.799Z,6.20
2023-09-05T10:48:10.618Z,5.70
2023-09-05T10:51:11.743Z,5.82
2023-09-05T10:53:41.442Z,5.03
2023-09-05T10:56:41.688Z,5.80
2023-09-05T10:59:27.617Z,6.65
2023-09-05T11:02:03.088Z,5.65
2023-09-05T11:04:36.292Z,5.97
2023-09-05T11:07:07.439Z,5.95
2023-09-05T11:09:42.799Z,6.10
2023-09-05T11:12:12.184Z,6.78
2023-09-05T11:14:41.862Z,6.70
2023-09-05T11:17:14.113Z,7.25
2023-09-05T11:19:44.022Z,7.68
2023-09-05T11:22:16.576Z,8.05
2023-09-05T11:24:49.727Z,8.38
2023-09-05T11:27:20.740Z,7.90
2023-09-05T11:29:51.135Z,8.73
2023-09-05T11:32:19.458Z,8.90
2023-09-05T11:34:49.262Z,10.20
2023-09-05T11:37:22.316Z,8.88
2023-09-05T11:39:51.640Z,9.13
2023-09-05T11:42:21.505Z,10.20
2023-09-05T11:44:52.145Z,9.38
2023-09-05T11:47:23.917Z,9.63
2023-09-05T11:49:54.537Z,8.13
2023-09-05T11:52:24.605Z,9.80
2023-09-05T11:54:55.400Z,8.18
2023-09-05T11:57:25.134Z,8.82
2023-09-05T11:59:54.993Z,8.82
2023-09-05T12:02:23.158Z,8.48
2023-09-05T12:04:51.292Z,9.35
2023-09-05T12:07:25.285Z,8.45
2023-09-05T12:09:56.841Z,8.27
2023-09-05T12:12:25.068Z,8.98
2023-09-05T12:14:55.601Z,9.13
2023-09-05T12:17:24.675Z,8.63
2023-09-05T12:19:54.535Z,8.18
2023-09-05T12:22:28.102Z,8.70
2023-09-05T12:25:18.825Z,8.10
2023-09-05T12:27:50.226Z,8.13
2023-09-05T12:30:31.139Z,8.32
2023-09-05T12:33:01.707Z,8.02
2023-09-05T12:35:32.734Z,7.57
2023-09-05T12:38:02.616Z,7.32
2023-09-05T12:40:34.399Z,7.88
2023-09-05T12:43:02.994Z,8.43
2023-09-05T12:45:34.147Z,6.63
2023-09-05T12:48:03.187Z,6.07
2023-09-05T12:50:33.757Z,7.57
2023-09-05T12:53:02.633Z,6.55
2023-09-05T12:55:33.676Z,6.20
2023-09-05T12:58:04.748Z,7.25
2023-09-05T13:00:36.113Z,6.80
2023-09-05T13:03:07.455Z,7.22
2023-09-05T13:05:36.470Z,7.63
2023-09-05T13:08:05.729Z,7.45
2023-09-05T13:10:33.824Z,7.13
2023-09-05T13:13:05.473Z,6.53
2023-09-05T13:15:35.726Z,7.30
2023-09-05T13:18:04.273Z,5.55
2023-09-05T13:20:32.871Z,6.70
2023-09-05T13:23:01.778Z,8.23
2023-09-05T13:25:34.785Z,8.60
2023-09-05T13:28:06.589Z,8.35
2023-09-05T13:30:36.968Z,8.15
2023-09-05T13:33:06.028Z,8.30
2023-09-05T13:35:34.466Z,7.57
2023-09-05T13:38:02.707Z,7.80
2023-09-05T13:40:31.095Z,7.05
2023-09-05T13:42:59.900Z,7.50
2023-09-05T13:45:28.554Z,8.55
2023-09-05T13:47:58.741Z,9.32
2023-09-05T13:50:26.982Z,8.55
2023-09-05T13:52:55.372Z,8.40
2023-09-05T13:55:23.585Z,7.25
2023-09-05T13:57:52.454Z,7.68
2023-09-05T14:00:23.096Z,7.75
2023-09-05T14:02:51.631Z,7.85
2023-09-05T14:05:21.356Z,7.40
2023-09-05T14:07:49.636Z,7.32
2023-09-05T14:10:17.820Z,9.65
2023-09-05T14:12:46.234Z,8.40
2023-09-05T14:15:14.885Z,8.57
2023-09-05T14:17:44.228Z,8.00
2023-09-05T14:20:13.823Z,8.13
2023-09-05T14:22:43.422Z,8.90
2023-09-05T14:25:11.724Z,8.07
2023-09-05T14:27:39.930Z,9.02
2023-09-05T14:30:09.254Z,9.07
2023-09-05T14:32:37.466Z,9.05
2023-09-05T14:35:05.913Z,8.20
2023-09-05T14:37:34.056Z,9.50
2023-09-05T14:40:03.690Z,9.20
2023-09-05T14:42:36.891Z,7.78
2023-09-05T14:45:06.969Z,7.93
2023-09-05T14:47:35.394Z,8.13
2023-09-05T14:50:03.585Z,8.23
2023-09-05T14:52:35.238Z,8.93
2023-09-05T14:55:04.978Z,9.80
2023-09-05T14:57:33.130Z,8.10
2023-09-05T15:00:01.361Z,7.82
2023-09-05T15:02:29.601Z,8.23
2023-09-05T15:04:57.783Z,9.48
2023-09-05T15:07:26.122Z,8.70
2023-09-05T15:09:54.491Z,8.65
2023-09-05T15:12:24.049Z,8.38
2023-09-05T15:14:52.468Z,8.68
2023-09-05T15:17:20.566Z,9.35
2023-09-05T15:19:49.040Z,9.55
2023-09-05T15:22:17.368Z,8.25
2023-09-05T15:24:45.510Z,9.82
2023-09-05T15:27:14.639Z,9.60
2023-09-05T15:29:45.191Z,9.00
2023-09-05T15:32:13.412Z,8.25
2023-09-05T15:34:41.557Z,8.93
2023-09-05T15:37:09.862Z,9.25
2023-09-05T15:39:38.049Z,8.77
2023-09-05T15:42:06.872Z,9.10
2023-09-05T15:44:35.092Z,9.15
2023-09-05T15:47:06.030Z,7.40
2023-09-05T15:49:34.250Z,7.28
2023-09-05T15:52:06.603Z,8.27
2023-09-05T15:54:34.781Z,9.18
2023-09-05T15:57:03.188Z,7.82
2023-09-05T15:59:31.373Z,8.65
2023-09-05T16:01:59.576Z,7.78
2023-09-05T16:04:29.101Z,6.82
2023-09-05T16:06:57.224Z,8.10
2023-09-05T16:09:25.397Z,7.80
2023-09-05T16:11:53.498Z,7.35
2023-09-05T16:14:21.620Z,6.57
2023-09-05T16:16:50.041Z,7.07
2023-09-05T16:19:18.439Z,13.60
2023-09-05T16:21:48.864Z,6.97
2023-09-05T16:24:17.257Z,6.57
2023-09-05T16:26:45.621Z,8.45
2023-09-05T16:29:13.717Z,6.90
2023-09-05T16:31:42.165Z,6.20
2023-09-05T16:34:10.776Z,6.18
2023-09-05T16:36:39.710Z,7.63
2023-09-05T16:39:09.864Z,7.05
2023-09-05T16:41:38.398Z,7.32
2023-09-05T16:44:08.511Z,6.97
2023-09-05T16:46:37.086Z,7.45
2023-09-05T16:49:05.366Z,7.03
2023-09-05T16:51:35.470Z,8.27
2023-09-05T16:54:03.716Z,7.45
2023-09-05T16:56:33.358Z,7.47
2023-09-05T16:59:02.013Z,6.75
2023-09-05T17:01:31.449Z,7.25
2023-09-05T17:03:59.705Z,6.38
2023-09-05T17:06:27.955Z,6.63
2023-09-05T17:08:56.204Z,7.45
2023-09-05T17:11:24.461Z,6.93
2023-09-05T17:13:54.027Z,5.85
2023-09-05T17:16:22.116Z,5.30
2023-09-05T17:18:50.243Z,7.15
2023-09-05T17:21:19.148Z,9.75
2023-09-05T17:23:47.328Z,7.00
2023-09-05T17:26:16.027Z,6.97
2023-09-05T17:28:44.199Z,6.10
2023-09-05T17:31:13.953Z,5.70
2023-09-05T17:33:42.206Z,5.57
2023-09-05T17:36:13.703Z,5.60
2023-09-05T17:38:42.279Z,5.50
2023-09-05T17:41:10.769Z,5.25
2023-09-05T17:43:39.033Z,6.20
2023-09-05T17:46:08.063Z,5.82
2023-09-05T17:48:37.660Z,6.15
2023-09-05T17:51:05.940Z,5.32
2023-09-05T17:53:34.439Z,5.63
2023-09-05T17:56:02.547Z,6.32
2023-09-05T17:58:30.846Z,5.50
2023-09-05T18:00:59.224Z,5.32
2023-09-05T18:03:27.483Z,5.43
2023-09-05T18:05:57.233Z,5.00
2023-09-05T18:08:25.689Z,4.90
2023-09-05T18:11:04.447Z,4.75
2023-09-05T18:13:32.613Z,5.25
2023-09-05T18:16:05.431Z,4.70
2023-09-05T18:18:34.120Z,4.93
2023-09-05T18:21:05.252Z,5.25
2023-09-05T18:23:34.298Z,4.95
2023-09-05T18:26:05.971Z,5.40
2023-09-05T18:28:34.770Z,5.32
2023-09-05T18:31:07.044Z,5.00
2023-09-05T18:33:35.887Z,5.45
2023-09-05T18:36:06.714Z,4.85
2023-09-05T18:38:37.388Z,6.47
2023-09-05T18:41:05.491Z,4.93
2023-09-05T18:43:35.935Z,5.38
2023-09-05T18:46:04.377Z,5.32
2023-09-05T18:48:36.751Z,6.03
2023-09-05T18:51:10.136Z,5.82
2023-09-05T18:53:38.813Z,5.15
2023-09-05T18:56:07.684Z,8.88
2023-09-05T18:58:36.506Z,5.90
2023-09-05T19:01:05.225Z,4.65
2023-09-05T19:03:33.803Z,5.15
2023-09-05T19:06:02.064Z,4.80
2023-09-05T19:08:31.603Z,4.68
2023-09-05T19:11:04.128Z,5.55
2023-09-05T19:13:32.816Z,5.70
2023-09-05T19:16:05.014Z,6.22
2023-09-05T19:18:35.640Z,5.50
2023-09-05T19:21:04.551Z,4.72
2023-09-05T19:23:34.294Z,5.90
2023-09-05T19:26:06.144Z,5.30
2023-09-05T19:28:34.933Z,4.97
2023-09-05T19:31:03.318Z,5.82
2023-09-05T19:33:31.655Z,6.10
2023-09-05T19:36:02.463Z,5.05
2023-09-05T19:38:30.925Z,5.68
2023-09-05T19:41:02.663Z,5.57
2023-09-05T19:43:30.912Z,6.30
2023-09-05T19:46:00.216Z,5.78
2023-09-05T19:48:28.873Z,5.82
2023-09-05T19:50:58.492Z,10.48
2023-09-05T19:53:27.100Z,13.00
2023-09-05T19:55:56.411Z,6.35
2023-09-05T19:58:26.192Z,6.20
2023-09-05T20:00:54.727Z,6.50
2023-09-05T20:03:23.066Z,6.70
2023-09-05T20:05:51.257Z,8.00
2023-09-05T20:08:19.327Z,6.25
2023-09-05T20:10:47.497Z,6.78
2023-09-05T20:13:15.555Z,5.78
2023-09-05T20:15:45.039Z,6.60
2023-09-05T20:18:13.394Z,9.38
2023-09-05T20:20:41.553Z,7.55
2023-09-05T20:23:10.293Z,9.80
2023-09-05T20:25:38.495Z,7.57
2023-09-05T20:28:07.701Z,7.50
2023-09-05T20:30:36.101Z,10.55
2023-09-05T20:33:06.289Z,7.07
2023-09-05T20:35:35.693Z,8.18
2023-09-05T20:38:04.185Z,7.90
2023-09-05T20:40:32.359Z,8.18
2023-09-05T20:43:00.947Z,8.52
2023-09-05T20:45:29.369Z,7.63
2023-09-05T20:47:57.707Z,8.13
2023-09-05T20:50:27.175Z,7.82
2023-09-05T20:52:55.277Z,7.43
2023-09-05T20:55:23.465Z,8.43
2023-09-05T20:57:51.740Z,7.50
2023-09-05T21:00:22.246Z,7.65
2023-09-05T21:02:50.634Z,9.83
2023-09-05T21:05:19.136Z,12.30
2023-09-05T21:07:48.821Z,9.00
2023-09-05T21:10:17.140Z,8.27
2023-09-05T21:12:45.275Z,7.50
2023-09-05T21:15:17.120Z,8.35
2023-09-05T21:17:45.806Z,9.63
2023-09-05T21:20:15.544Z,8.55
2023-09-05T21:22:44.321Z,8.20
2023-09-05T21:25:15.158Z,7.53
2023-09-05T21:27:43.595Z,8.70
2023-09-05T21:30:12.386Z,8.98
2023-09-05T21:32:41.126Z,8.07
2023-09-05T21:35:10.417Z,7.18
2023-09-05T21:37:38.779Z,7.13
2023-09-05T21:40:08.139Z,6.47
2023-09-05T21:42:39.659Z,7.40
2023-09-05T21:45:11.175Z,6.40
2023-09-05T21:47:39.366Z,6.70
2023-09-05T21:50:10.884Z,7.05
2023-09-05T21:55:07.907Z,6.82
2023-09-05T21:57:37.661Z,6.45
2023-09-05T22:00:07.395Z,6.75
2023-09-05T22:02:35.563Z,6.57
2023-09-05T22:05:03.942Z,6.47
2023-09-05T22:07:32.083Z,6.50
2023-09-05T22:10:01.016Z,7.00
2023-09-05T22:12:29.601Z,6.18
2023-09-05T22:14:59.296Z,6.25
2023-09-05T22:17:27.430Z,6.25
2023-09-05T22:19:56.509Z,5.90
2023-09-05T22:22:27.812Z,5.55
2023-09-05T22:24:55.979Z,6.88
2023-09-05T22:27:24.256Z,5.95
2023-09-05T22:29:52.408Z,6.20
2023-09-05T22:32:21.899Z,6.88
2023-09-05T22:34:50.033Z,6.38
2023-09-05T22:37:21.085Z,5.97
2023-09-05T22:39:49.322Z,6.40
2023-09-05T22:42:17.833Z,7.80
2023-09-05T22:44:48.673Z,7.95
2023-09-05T22:47:16.890Z,7.53
2023-09-05T22:49:46.996Z,7.07
2023-09-05T22:52:16.370Z,8.00
2023-09-05T22:54:44.686Z,8.73
2023-09-05T22:57:12.926Z,8.32
2023-09-05T22:59:41.067Z,7.70
2023-09-05T23:02:09.240Z,7.25
2023-09-05T23:04:37.479Z,7.35
2023-09-05T23:07:07.358Z,7.18
2023-09-05T23:09:35.613Z,7.53
2023-09-05T23:12:03.826Z,6.82
2023-09-05T23:14:32.119Z,8.07
2023-09-05T23:17:01.629Z,7.22
2023-09-05T23:19:30.359Z,7.18
2023-09-05T23:21:58.661Z,6.55
2023-09-05T23:24:28.351Z,7.43
2023-09-05T23:26:56.861Z,6.97
2023-09-05T23:29:24.989Z,6.38
2023-09-05T23:31:53.203Z,6.47
2023-09-05T23:34:21.438Z,6.38
2023-09-05T23:36:49.592Z,6.35
2023-09-05T23:39:18.876Z,7.05
2023-09-05T23:41:49.830Z,5.75
2023-09-05T23:44:19.167Z,6.90
2023-09-05T23:46:47.386Z,6.35
2023-09-05T23:49:15.573Z,5.95
2023-09-05T23:51:43.749Z,5.38
2023-09-05T23:54:12.659Z,5.30
2023-09-05T23:56:40.913Z,4.90
2023-09-05T23:59:10.817Z,4.90
